Time;durP1;ratioP1;P1;durP2;ratioP2;P2;SDS_P1;SDS_P2;PMS_P1;PMS_P2;Temp;Humidity;BMP_temperature;BMP_pressure;BME280_temperature;BME280_humidity;BME280_pressure;Samples;Min_cycle;Max_cycle;Signal;HPM_P1;HPM_P2
2022/09/07 00:01:02;;;;;;;6.07;4.18;;;18.60;99.90;;;;;;5074334;28;20379;-68
2022/09/07 00:03:28;;;;;;;5.15;4.05;;;18.60;99.90;;;;;;5073234;28;20045;-68
2022/09/07 00:05:54;;;;;;;5.38;4.15;;;18.60;99.90;;;;;;5072314;28;20105;-68
2022/09/07 00:08:22;;;;;;;7.07;4.20;;;18.60;99.90;;;;;;5069802;28;20041;-68
2022/09/07 00:10:53;;;;;;;5.93;4.30;;;18.60;99.90;;;;;;5073056;28;20072;-68
2022/09/07 00:13:18;;;;;;;5.28;4.13;;;18.60;99.90;;;;;;5074247;28;20037;-67
2022/09/07 00:15:44;;;;;;;8.80;4.25;;;18.50;99.90;;;;;;5074129;28;20051;-67
2022/09/07 00:18:10;;;;;;;5.82;3.95;;;18.50;99.90;;;;;;5074271;28;20040;-67
2022/09/07 00:20:35;;;;;;;5.13;4.10;;;18.50;99.90;;;;;;5072825;28;20056;-67
2022/09/07 00:23:01;;;;;;;5.60;4.57;;;18.50;99.90;;;;;;5072652;28;20044;-67
2022/09/07 00:25:27;;;;;;;5.55;4.22;;;18.50;99.90;;;;;;5073886;28;20053;-67
2022/09/07 00:27:52;;;;;;;5.38;4.53;;;18.50;99.90;;;;;;5072925;28;20032;-67
2022/09/07 00:30:18;;;;;;;6.65;4.32;;;18.40;99.90;;;;;;5070988;28;20052;-67
2022/09/07 00:32:44;;;;;;;5.15;4.13;;;18.40;99.90;;;;;;5055955;28;20036;-67
2022/09/07 00:35:11;;;;;;;6.05;4.18;;;18.40;99.90;;;;;;5073809;28;20389;-67
2022/09/07 00:37:37;;;;;;;5.53;4.20;;;18.40;99.90;;;;;;5073758;28;20044;-67
2022/09/07 00:40:04;;;;;;;6.57;4.40;;;18.40;99.90;;;;;;5073454;28;20044;-67
2022/09/07 00:42:29;;;;;;;4.75;4.03;;;18.40;99.90;;;;;;5073694;28;20091;-68
2022/09/07 00:45:25;;;;;;;5.10;4.18;;;18.40;99.90;;;;;;5072970;28;20099;-68
2022/09/07 00:48:06;;;;;;;5.82;4.25;;;18.40;99.90;;;;;;5064613;28;20147;-67
2022/09/07 00:50:41;;;;;;;4.78;4.28;;;18.40;99.90;;;;;;5073588;28;20044;-67
2022/09/07 00:53:26;;;;;;;5.53;4.55;;;18.30;99.90;;;;;;5073292;28;20048;-67
2022/09/07 00:55:53;;;;;;;5.47;4.80;;;18.30;99.90;;;;;;5072275;28;20517;-67
2022/09/07 00:58:21;;;;;;;6.57;4.82;;;18.20;99.90;;;;;;5054056;28;20504;-67
2022/09/07 01:00:48;;;;;;;6.40;5.50;;;18.20;99.90;;;;;;5073022;28;20062;-66
2022/09/07 01:03:17;;;;;;;6.47;5.78;;;18.10;99.90;;;;;;5073176;28;20115;-67
2022/09/07 01:05:49;;;;;;;6.78;6.07;;;18.10;99.90;;;;;;5073294;28;20048;-67
2022/09/07 01:08:15;;;;;;;8.15;6.10;;;18.10;99.90;;;;;;5072786;28;20485;-67
2022/09/07 01:10:41;;;;;;;7.95;6.00;;;17.90;99.90;;;;;;5072174;28;20048;-67
2022/09/07 01:13:07;;;;;;;6.80;6.10;;;17.70;99.90;;;;;;5073037;28;20044;-66
2022/09/07 01:15:52;;;;;;;8.23;6.18;;;17.60;99.90;;;;;;5073083;28;20553;-66
2022/09/07 01:18:21;;;;;;;7.35;6.43;;;17.60;99.90;;;;;;5073192;28;20519;-66
2022/09/07 01:20:56;;;;;;;7.95;6.80;;;17.60;99.90;;;;;;5071836;28;20048;-66
2022/09/07 01:23:47;;;;;;;10.10;7.95;;;17.50;99.90;;;;;;5071319;28;20052;-66
2022/09/07 01:26:26;;;;;;;9.20;8.13;;;17.50;99.90;;;;;;5070501;28;20114;-66
2022/09/07 01:29:15;;;;;;;9.23;8.32;;;17.40;99.90;;;;;;5071645;28;20512;-67
2022/09/07 01:32:00;;;;;;;9.25;8.35;;;17.30;99.90;;;;;;5072806;28;20040;-66
2022/09/07 01:34:26;;;;;;;12.57;8.90;;;17.20;99.90;;;;;;5072808;28;20032;-66
2022/09/07 01:36:57;;;;;;;9.90;7.75;;;17.20;99.90;;;;;;5072765;28;20048;-66
2022/09/07 01:39:32;;;;;;;8.35;7.22;;;17.20;99.90;;;;;;5072596;28;20078;-67
2022/09/07 01:42:03;;;;;;;8.98;7.57;;;17.10;99.90;;;;;;5072270;28;20534;-66
2022/09/07 01:44:36;;;;;;;9.10;7.65;;;17.20;99.90;;;;;;5072580;28;20472;-67
2022/09/07 01:47:11;;;;;;;8.60;7.70;;;17.20;99.90;;;;;;5070439;28;20783;-66
2022/09/07 01:49:47;;;;;;;10.18;8.35;;;17.20;99.90;;;;;;5064132;28;20386;-66
2022/09/07 01:52:30;;;;;;;7.85;6.68;;;17.20;99.90;;;;;;5072668;28;20048;-65
2022/09/07 01:55:03;;;;;;;8.30;7.13;;;17.20;99.90;;;;;;5072181;28;20057;-66
2022/09/07 01:57:49;;;;;;;8.32;6.78;;;17.30;99.90;;;;;;5071152;28;20057;-66
2022/09/07 02:00:18;;;;;;;6.63;5.75;;;17.30;99.90;;;;;;5072258;28;20051;-66
2022/09/07 02:02:59;;;;;;;6.93;5.45;;;17.30;99.90;;;;;;5072116;28;20040;-67
2022/09/07 02:05:41;;;;;;;7.18;5.38;;;17.30;99.90;;;;;;5072096;28;20119;-66
2022/09/07 02:08:15;;;;;;;6.90;5.25;;;17.40;99.90;;;;;;5071158;28;20397;-66
2022/09/07 02:10:51;;;;;;;6.85;6.07;;;17.40;99.90;;;;;;5072125;28;20048;-67
2022/09/07 02:13:45;;;;;;;6.55;5.68;;;17.50;99.90;;;;;;5069662;28;20041;-66
2022/09/07 02:16:15;;;;;;;8.65;5.57;;;17.50;99.90;;;;;;5055190;28;20036;-66
2022/09/07 02:18:45;;;;;;;6.82;6.13;;;17.50;99.90;;;;;;5071981;28;20120;-66
2022/09/07 02:21:14;;;;;;;7.18;5.97;;;17.50;99.90;;;;;;5071591;28;20101;-67
2022/09/07 02:23:48;;;;;;;7.13;5.72;;;17.50;99.90;;;;;;5071302;28;20066;-66
2022/09/07 02:26:18;;;;;;;6.28;5.45;;;17.50;99.90;;;;;;5071481;28;20358;-66
2022/09/07 02:28:44;;;;;;;6.32;5.72;;;17.50;99.90;;;;;;5071607;28;20080;-66
2022/09/07 02:31:10;;;;;;;6.20;5.50;;;17.50;99.90;;;;;;5070414;28;20097;-66
2022/09/07 02:33:36;;;;;;;6.82;5.75;;;17.50;99.90;;;;;;5071709;28;20056;-66
2022/09/07 02:36:03;;;;;;;7.70;5.57;;;17.60;99.90;;;;;;5071548;28;20053;-66
2022/09/07 02:38:30;;;;;;;6.32;5.72;;;17.50;99.90;;;;;;5071364;28;20514;-66
2022/09/07 02:40:58;;;;;;;6.25;5.57;;;17.60;99.90;;;;;;5071810;28;20052;-66
2022/09/07 02:43:25;;;;;;;6.68;5.97;;;17.50;99.90;;;;;;5071722;28;20603;-66
2022/09/07 02:46:12;;;;;;;7.07;6.32;;;17.60;99.90;;;;;;5071419;28;20048;-65
2022/09/07 02:49:02;;;;;;;6.28;5.38;;;17.60;99.90;;;;;;5071311;28;20040;-66
2022/09/07 02:51:41;;;;;;;6.15;5.53;;;17.50;99.90;;;;;;5071494;28;20097;-66
2022/09/07 02:54:33;;;;;;;6.68;5.93;;;17.50;99.90;;;;;;5070972;28;20415;-67
2022/09/07 02:57:19;;;;;;;6.75;5.90;;;17.50;99.90;;;;;;5069834;28;20056;-66
2022/09/07 03:00:04;;;;;;;6.75;5.95;;;17.50;99.90;;;;;;5070230;28;20052;-66
2022/09/07 03:02:38;;;;;;;6.90;6.20;;;17.40;99.90;;;;;;5070189;28;20059;-67
2022/09/07 03:05:30;;;;;;;8.10;5.93;;;17.40;99.90;;;;;;5071135;28;20047;-67
2022/09/07 03:08:04;;;;;;;7.22;5.63;;;17.40;99.90;;;;;;5072472;28;20075;-67
2022/09/07 03:10:30;;;;;;;6.95;5.70;;;17.40;99.90;;;;;;5077934;28;20131;-66
2022/09/07 03:12:56;;;;;;;6.85;6.13;;;17.40;99.90;;;;;;5077852;28;20113;-66
2022/09/07 03:15:24;;;;;;;7.00;5.70;;;17.40;99.90;;;;;;5078006;28;20485;-66
2022/09/07 03:17:51;;;;;;;6.15;5.55;;;17.40;99.90;;;;;;5077811;28;20487;-66
2022/09/07 03:20:17;;;;;;;6.75;5.55;;;17.40;99.90;;;;;;5077392;28;20497;-66
2022/09/07 03:22:45;;;;;;;6.38;5.72;;;17.40;99.90;;;;;;5076248;28;20412;-66
2022/09/07 03:25:12;;;;;;;6.45;5.85;;;17.40;99.90;;;;;;5076374;28;20358;-67
2022/09/07 03:27:38;;;;;;;6.10;5.50;;;17.40;99.90;;;;;;5077805;28;20091;-67
2022/09/07 03:30:05;;;;;;;6.13;5.53;;;17.40;99.90;;;;;;5074478;28;20028;-67
2022/09/07 03:32:33;;;;;;;8.00;6.18;;;17.40;99.90;;;;;;5076326;28;20044;-67
2022/09/07 03:34:59;;;;;;;7.65;6.20;;;17.40;99.90;;;;;;5076587;28;20093;-67
2022/09/07 03:37:25;;;;;;;7.80;7.03;;;17.40;99.90;;;;;;5077651;28;20040;-67
2022/09/07 03:39:52;;;;;;;8.13;7.18;;;17.30;99.90;;;;;;5077654;28;20109;-67
2022/09/07 03:42:18;;;;;;;8.13;7.32;;;17.40;99.90;;;;;;5077579;28;20070;-67
2022/09/07 03:44:44;;;;;;;9.30;7.60;;;17.40;99.90;;;;;;5077653;28;20317;-67
2022/09/07 03:47:09;;;;;;;8.68;7.78;;;17.40;99.90;;;;;;5074453;28;20439;-67
2022/09/07 03:49:35;;;;;;;8.70;7.80;;;17.40;99.90;;;;;;5077408;28;20072;-67
2022/09/07 03:52:02;;;;;;;9.55;7.63;;;17.40;99.90;;;;;;5077237;28;20048;-67
2022/09/07 03:54:27;;;;;;;8.40;7.57;;;17.40;99.90;;;;;;5075961;28;20048;-67
2022/09/07 03:56:53;;;;;;;8.48;7.68;;;17.40;99.90;;;;;;5077282;28;20044;-67
2022/09/07 03:59:19;;;;;;;8.40;7.60;;;17.40;99.90;;;;;;5074519;28;20048;-67
2022/09/07 04:01:45;;;;;;;9.00;7.47;;;17.40;99.90;;;;;;5071944;28;20086;-67
2022/09/07 04:04:10;;;;;;;9.38;7.90;;;17.40;99.90;;;;;;5077301;28;20044;-67
2022/09/07 04:06:36;;;;;;;8.30;7.40;;;17.40;99.90;;;;;;5077440;28;20055;-67
2022/09/07 04:09:05;;;;;;;8.77;7.90;;;17.30;99.90;;;;;;5076346;28;20044;-67
2022/09/07 04:11:31;;;;;;;8.95;8.05;;;17.30;99.90;;;;;;5077359;28;20093;-67
2022/09/07 04:13:57;;;;;;;9.05;8.15;;;17.40;99.90;;;;;;5077354;28;20089;-67
2022/09/07 04:16:25;;;;;;;9.60;7.78;;;17.30;99.90;;;;;;5075865;28;20044;-67
2022/09/07 04:18:53;;;;;;;9.55;8.50;;;17.30;99.90;;;;;;5071010;28;20116;-67
2022/09/07 04:21:21;;;;;;;9.32;8.35;;;17.30;99.90;;;;;;5072859;28;20051;-67
2022/09/07 04:23:47;;;;;;;8.45;7.65;;;17.30;99.90;;;;;;5073528;28;20765;-67
2022/09/07 04:26:16;;;;;;;9.95;7.75;;;17.30;99.90;;;;;;5073887;28;20102;-67
2022/09/07 04:28:42;;;;;;;9.10;8.23;;;17.20;99.90;;;;;;5074004;28;20073;-67
2022/09/07 04:31:08;;;;;;;8.52;7.72;;;17.20;99.90;;;;;;5073984;28;20472;-67
2022/09/07 04:33:33;;;;;;;8.43;7.63;;;17.20;99.90;;;;;;5073814;28;20037;-67
2022/09/07 04:36:00;;;;;;;8.95;8.02;;;17.20;99.90;;;;;;5072890;28;20048;-67
2022/09/07 04:38:26;;;;;;;8.70;7.78;;;17.20;99.90;;;;;;5073718;28;20036;-67
2022/09/07 04:41:08;;;;;;;8.30;7.50;;;17.10;99.90;;;;;;5073964;28;20047;-67
2022/09/07 04:43:34;;;;;;;8.10;7.28;;;17.10;99.90;;;;;;5073416;28;20477;-66
2022/09/07 04:46:18;;;;;;;8.55;7.63;;;17.00;99.90;;;;;;5073735;28;20055;-67
2022/09/07 04:48:51;;;;;;;8.90;8.00;;;17.00;99.90;;;;;;5073816;28;20484;-67
2022/09/07 04:51:17;;;;;;;8.95;7.78;;;17.00;99.90;;;;;;5071921;28;20086;-67
2022/09/07 04:53:47;;;;;;;9.20;8.30;;;17.00;99.90;;;;;;5073091;28;20093;-70
2022/09/07 04:56:13;;;;;;;9.15;8.25;;;17.00;99.90;;;;;;5073785;28;20516;-66
2022/09/07 04:58:39;;;;;;;9.80;8.80;;;17.00;99.90;;;;;;5073556;28;20052;-66
2022/09/07 05:01:06;;;;;;;9.60;8.48;;;17.00;99.90;;;;;;5073405;28;20084;-66
2022/09/07 05:03:36;;;;;;;10.82;8.63;;;17.00;99.90;;;;;;5071944;28;20083;-67
2022/09/07 05:06:04;;;;;;;11.93;8.57;;;17.00;99.90;;;;;;5069543;28;20055;-66
2022/09/07 05:08:34;;;;;;;12.20;8.98;;;17.00;99.90;;;;;;5072794;28;20512;-67
2022/09/07 05:10:59;;;;;;;9.07;8.18;;;17.00;99.90;;;;;;5072925;28;20060;-68
2022/09/07 05:13:25;;;;;;;10.10;9.10;;;17.00;99.90;;;;;;5072496;28;20041;-67
2022/09/07 05:15:51;;;;;;;10.07;8.88;;;17.00;99.90;;;;;;5073076;28;20052;-67
2022/09/07 05:18:16;;;;;;;10.07;8.98;;;17.00;99.90;;;;;;5072886;28;20052;-67
2022/09/07 05:20:42;;;;;;;9.98;8.73;;;17.00;99.90;;;;;;5071761;28;20381;-67
2022/09/07 05:23:08;;;;;;;9.57;8.57;;;17.00;99.90;;;;;;5072283;28;20105;-67
2022/09/07 05:25:34;;;;;;;9.80;8.55;;;17.10;99.90;;;;;;5072867;28;20181;-66
2022/09/07 05:28:00;;;;;;;10.98;9.25;;;17.10;99.90;;;;;;5071370;28;20090;-67
2022/09/07 05:30:25;;;;;;;9.60;8.60;;;17.10;99.90;;;;;;5071373;28;20071;-67
2022/09/07 05:32:51;;;;;;;9.65;8.65;;;17.10;99.90;;;;;;5072690;28;20052;-67
2022/09/07 05:35:17;;;;;;;10.13;8.95;;;17.10;99.90;;;;;;5072653;28;20037;-67
2022/09/07 05:37:48;;;;;;;10.30;9.25;;;17.10;99.90;;;;;;5071325;28;20083;-67
2022/09/07 05:40:14;;;;;;;11.45;9.13;;;17.10;99.90;;;;;;5072752;28;20044;-66
2022/09/07 05:42:40;;;;;;;10.38;9.00;;;17.20;99.90;;;;;;5072615;28;20147;-66
2022/09/07 05:45:06;;;;;;;11.30;9.18;;;17.20;99.90;;;;;;5069837;28;20115;-66
2022/09/07 05:47:32;;;;;;;10.18;9.07;;;17.20;99.90;;;;;;5067839;28;20048;-67
2022/09/07 05:49:58;;;;;;;10.98;9.00;;;17.20;99.90;;;;;;5072195;28;20048;-66
2022/09/07 05:52:24;;;;;;;9.65;8.65;;;17.20;99.90;;;;;;5072182;28;20067;-67
2022/09/07 05:54:49;;;;;;;9.82;7.97;;;17.20;99.90;;;;;;5070889;28;20041;-66
2022/09/07 05:57:15;;;;;;;9.80;8.40;;;17.20;99.90;;;;;;5052167;28;20049;-66
2022/09/07 05:59:41;;;;;;;10.25;9.25;;;17.20;99.90;;;;;;5052238;28;20500;-67
2022/09/07 06:02:06;;;;;;;9.50;8.48;;;17.30;99.90;;;;;;5050893;28;20154;-66
2022/09/07 06:04:32;;;;;;;10.45;8.05;;;17.30;99.90;;;;;;5061720;28;20044;-67
2022/09/07 06:06:58;;;;;;;9.80;8.80;;;17.30;99.90;;;;;;5072175;28;20060;-67
2022/09/07 06:09:24;;;;;;;10.23;8.93;;;17.40;99.90;;;;;;5054107;28;20072;-67
2022/09/07 06:11:50;;;;;;;9.43;8.45;;;17.40;99.90;;;;;;5070942;28;20047;-67
2022/09/07 06:14:15;;;;;;;10.68;8.38;;;17.40;99.90;;;;;;5072024;28;20044;-66
2022/09/07 06:16:42;;;;;;;10.48;9.13;;;17.40;99.90;;;;;;5070464;28;20127;-67
2022/09/07 06:19:07;;;;;;;9.68;8.60;;;17.40;99.90;;;;;;5070319;28;20051;-65
2022/09/07 06:21:35;;;;;;;11.55;9.07;;;17.50;99.90;;;;;;5069426;28;20044;-66
2022/09/07 06:24:02;;;;;;;10.10;9.10;;;17.50;99.90;;;;;;5071156;28;20048;-66
2022/09/07 06:26:28;;;;;;;9.85;8.23;;;17.50;99.90;;;;;;5070624;28;20488;-67
2022/09/07 06:28:54;;;;;;;11.65;8.93;;;17.50;99.90;;;;;;5071530;28;20040;-66
2022/09/07 06:31:23;;;;;;;11.02;9.13;;;17.60;99.90;;;;;;5071578;28;20037;-66
2022/09/07 06:33:50;;;;;;;9.68;8.50;;;17.60;99.90;;;;;;5071630;28;20072;-66
2022/09/07 06:36:20;;;;;;;10.77;9.68;;;17.60;99.90;;;;;;5071097;28;20421;-67
2022/09/07 06:38:47;;;;;;;10.45;9.35;;;17.70;99.90;;;;;;5071070;28;20040;-66
2022/09/07 06:41:19;;;;;;;10.63;9.52;;;17.70;99.90;;;;;;5071578;28;20048;-66
2022/09/07 06:43:44;;;;;;;10.60;9.57;;;17.80;99.90;;;;;;5069864;28;20066;-66
2022/09/07 06:46:11;;;;;;;10.85;9.48;;;17.90;99.90;;;;;;5070164;28;20036;-66
2022/09/07 06:48:36;;;;;;;11.23;10.00;;;17.90;99.90;;;;;;5070190;28;20469;-66
2022/09/07 06:51:13;;;;;;;10.73;9.63;;;18.00;99.90;;;;;;5071309;28;20098;-67
2022/09/07 06:53:39;;;;;;;10.38;9.25;;;18.10;99.90;;;;;;5070873;28;20473;-66
2022/09/07 06:56:07;;;;;;;10.95;8.98;;;18.10;99.90;;;;;;5070474;28;20044;-66
2022/09/07 06:58:33;;;;;;;9.80;8.45;;;18.00;99.90;;;;;;5071311;28;20048;-66
2022/09/07 07:01:05;;;;;;;11.48;8.38;;;18.00;99.90;;;;;;5069316;28;20044;-65
2022/09/07 07:03:31;;;;;;;9.88;8.73;;;18.00;99.90;;;;;;5071222;28;20089;-65
2022/09/07 07:05:56;;;;;;;9.38;8.18;;;17.90;99.90;;;;;;5071370;28;20481;-66
2022/09/07 07:08:23;;;;;;;10.40;8.60;;;17.90;99.90;;;;;;5071143;28;20105;-65
2022/09/07 07:10:50;;;;;;;11.07;8.57;;;17.80;99.90;;;;;;5071230;28;20051;-66
2022/09/07 07:13:17;;;;;;;10.07;8.70;;;17.80;99.90;;;;;;5071281;28;20106;-66
2022/09/07 07:15:43;;;;;;;10.23;8.15;;;17.70;99.90;;;;;;5070277;28;20037;-66
2022/09/07 07:18:10;;;;;;;9.50;8.50;;;17.70;99.90;;;;;;5071025;28;20044;-66
2022/09/07 07:20:37;;;;;;;11.68;9.25;;;17.70;99.90;;;;;;5053414;28;20111;-66
2022/09/07 07:23:03;;;;;;;11.68;9.70;;;17.70;99.90;;;;;;5070613;28;20040;-66
2022/09/07 07:25:29;;;;;;;11.02;8.90;;;17.70;99.90;;;;;;5070087;28;20040;-66
2022/09/07 07:27:55;;;;;;;11.07;8.95;;;17.70;99.90;;;;;;5071150;28;20044;-66
2022/09/07 07:30:20;;;;;;;11.25;9.10;;;17.70;99.90;;;;;;5069605;28;20094;-65
2022/09/07 07:32:47;;;;;;;11.45;9.55;;;17.80;99.90;;;;;;5070873;28;20120;-66
2022/09/07 07:35:13;;;;;;;10.48;9.05;;;17.80;99.90;;;;;;5070851;28;20048;-66
2022/09/07 07:37:39;;;;;;;9.93;8.55;;;17.80;99.90;;;;;;5071004;28;20485;-66
2022/09/07 07:40:10;;;;;;;10.43;9.32;;;17.80;99.90;;;;;;5069729;28;20036;-66
2022/09/07 07:42:38;;;;;;;12.20;9.20;;;17.80;99.90;;;;;;5070997;28;20043;-66
2022/09/07 07:45:07;;;;;;;10.55;8.85;;;17.80;99.90;;;;;;5070949;28;20043;-66
2022/09/07 07:47:34;;;;;;;11.13;8.90;;;17.90;99.90;;;;;;5070835;28;20182;-66
2022/09/07 07:50:04;;;;;;;12.48;9.15;;;17.90;99.90;;;;;;5069334;28;20473;-65
2022/09/07 07:52:39;;;;;;;11.85;8.80;;;17.90;99.90;;;;;;5070859;28;20047;-66
2022/09/07 07:55:05;;;;;;;10.95;8.73;;;17.90;99.90;;;;;;5072886;28;20119;-66
2022/09/07 07:57:31;;;;;;;13.07;9.20;;;17.90;99.90;;;;;;5074065;28;20505;-65
2022/09/07 07:59:57;;;;;;;11.60;9.90;;;17.90;99.90;;;;;;5074491;28;20091;-66
2022/09/07 08:02:23;;;;;;;11.85;9.80;;;17.90;99.90;;;;;;5073194;28;20042;-66
2022/09/07 08:04:49;;;;;;;13.48;9.45;;;17.90;99.90;;;;;;5074156;28;20036;-66
2022/09/07 08:07:15;;;;;;;12.15;9.68;;;17.90;99.90;;;;;;5074452;28;20052;-66
2022/09/07 08:09:42;;;;;;;13.15;9.73;;;17.90;99.90;;;;;;5074332;28;20369;-66
2022/09/07 08:12:11;;;;;;;13.38;10.60;;;17.90;99.90;;;;;;5074235;28;20041;-66
2022/09/07 08:14:41;;;;;;;13.60;10.82;;;17.90;99.90;;;;;;5074247;28;20127;-67
2022/09/07 08:17:11;;;;;;;12.93;9.98;;;17.90;99.90;;;;;;5074166;28;20044;-67
2022/09/07 08:19:37;;;;;;;14.50;10.02;;;17.90;99.90;;;;;;5074137;28;20145;-66
2022/09/07 08:22:02;;;;;;;14.68;10.30;;;17.90;99.90;;;;;;5074249;28;20040;-66
2022/09/07 08:24:30;;;;;;;12.93;11.02;;;17.90;99.90;;;;;;5073587;28;20044;-67
2022/09/07 08:26:55;;;;;;;14.35;10.68;;;18.10;99.90;;;;;;5072514;28;20037;-66
2022/09/07 08:29:21;;;;;;;13.43;11.55;;;18.10;99.90;;;;;;5073916;28;20095;-67
2022/09/07 08:31:47;;;;;;;15.57;12.43;;;18.20;99.90;;;;;;5073860;28;20413;-66
2022/09/07 08:34:13;;;;;;;15.88;11.90;;;18.20;99.90;;;;;;5072562;28;20040;-66
2022/09/07 08:36:39;;;;;;;13.38;11.63;;;18.20;99.90;;;;;;5073844;28;20047;-66
2022/09/07 08:39:04;;;;;;;14.43;11.38;;;18.20;99.90;;;;;;5074014;28;20138;-67
2022/09/07 08:41:36;;;;;;;16.65;12.05;;;18.30;99.90;;;;;;5073729;28;20041;-66
2022/09/07 08:44:28;;;;;;;14.52;11.65;;;18.30;99.90;;;;;;5073723;28;20119;-66
2022/09/07 08:47:28;;;;;;;13.75;11.43;;;18.40;99.90;;;;;;5073790;28;20052;-67
2022/09/07 08:50:03;;;;;;;14.23;11.65;;;18.50;99.90;;;;;;5072596;28;20051;-64
2022/09/07 08:52:47;;;;;;;16.15;11.88;;;18.60;99.90;;;;;;5073529;28;20045;-65
2022/09/07 08:55:25;;;;;;;14.25;11.57;;;18.60;99.90;;;;;;5072340;28;20048;-65
2022/09/07 08:58:32;;;;;;;14.20;12.02;;;18.70;99.90;;;;;;5073056;28;20049;-65
2022/09/07 09:01:21;;;;;;;16.73;11.45;;;18.70;99.90;;;;;;5088512;28;20389;-65
2022/09/07 09:03:48;;;;;;;13.77;11.05;;;18.70;99.90;;;;;;5088779;28;20482;-66
2022/09/07 09:06:27;;;;;;;15.77;12.13;;;18.70;99.90;;;;;;5088750;28;20048;-66
2022/09/07 09:08:58;;;;;;;15.80;12.02;;;18.70;99.90;;;;;;5088605;28;20169;-65
2022/09/07 09:11:35;;;;;;;14.90;12.30;;;18.80;99.90;;;;;;5088653;28;20044;-66
2022/09/07 09:14:23;;;;;;;15.50;12.35;;;18.80;99.90;;;;;;5087454;28;20062;-65
2022/09/07 09:16:56;;;;;;;13.95;11.25;;;18.90;99.90;;;;;;5066531;28;20060;-66
2022/09/07 09:19:53;;;;;;;15.35;11.63;;;19.00;99.90;;;;;;5088360;28;20372;-65
2022/09/07 09:22:22;;;;;;;14.00;11.52;;;19.00;99.90;;;;;;5087557;28;20055;-65
2022/09/07 09:24:57;;;;;;;14.30;11.75;;;19.00;99.90;;;;;;5086944;28;20056;-65
2022/09/07 09:27:23;;;;;;;14.52;12.25;;;19.20;99.90;;;;;;5088505;28;20101;-66
2022/09/07 09:29:48;;;;;;;12.68;10.98;;;19.30;99.90;;;;;;5086921;28;20040;-66
2022/09/07 09:32:40;;;;;;;12.93;10.48;;;19.30;99.90;;;;;;5088583;28;20059;-66
2022/09/07 09:35:19;;;;;;;11.73;10.00;;;19.20;99.90;;;;;;5088197;28;20385;-66
2022/09/07 09:37:45;;;;;;;12.45;11.00;;;19.20;99.90;;;;;;5088268;28;20056;-65
2022/09/07 09:40:26;;;;;;;13.88;10.98;;;19.10;99.90;;;;;;5088057;28;20055;-65
2022/09/07 09:43:16;;;;;;;13.48;11.07;;;19.10;99.90;;;;;;5088086;28;20073;-66
2022/09/07 09:45:45;;;;;;;11.95;10.40;;;19.20;99.90;;;;;;5088121;28;20098;-65
2022/09/07 09:48:19;;;;;;;14.30;11.05;;;19.20;99.90;;;;;;5087784;28;20084;-65
2022/09/07 09:50:51;;;;;;;13.10;11.25;;;19.20;99.90;;;;;;5087981;28;20082;-65
2022/09/07 09:53:42;;;;;;;13.40;10.70;;;19.20;99.90;;;;;;5087339;28;20056;-66
2022/09/07 09:56:08;;;;;;;10.75;9.45;;;19.30;99.90;;;;;;5087909;28;20094;-66
2022/09/07 09:58:36;;;;;;;11.25;9.80;;;19.30;99.90;;;;;;5087829;28;20407;-66
2022/09/07 10:01:22;;;;;;;12.38;10.15;;;19.30;99.90;;;;;;5087284;28;20844;-65
2022/09/07 10:03:49;;;;;;;12.00;10.07;;;19.30;99.90;;;;;;5085209;28;20059;-66
2022/09/07 10:06:18;;;;;;;11.43;9.82;;;19.30;99.90;;;;;;5084197;28;20115;-66
2022/09/07 10:08:58;;;;;;;10.40;8.52;;;19.40;99.90;;;;;;5086004;28;20048;-66
2022/09/07 10:11:46;;;;;;;10.18;8.50;;;19.50;99.90;;;;;;5080056;28;20165;-66
2022/09/07 10:14:22;;;;;;;10.32;8.07;;;19.60;99.90;;;;;;5074296;28;20048;-66
2022/09/07 10:16:47;;;;;;;9.05;8.07;;;19.60;99.90;;;;;;5073717;28;20548;-66
2022/09/07 10:19:25;;;;;;;8.60;7.68;;;19.60;99.90;;;;;;5073825;28;20143;-65
2022/09/07 10:21:59;;;;;;;7.43;6.50;;;19.60;99.90;;;;;;5073859;28;20052;-66
2022/09/07 10:24:29;;;;;;;8.15;6.57;;;19.60;99.90;;;;;;5071781;28;20052;-65
2022/09/07 10:26:55;;;;;;;7.63;6.80;;;19.70;99.90;;;;;;5072632;28;20104;-65
2022/09/07 10:29:29;;;;;;;7.75;6.43;;;19.70;99.90;;;;;;5072549;28;20131;-65
2022/09/07 10:32:30;;;;;;;7.03;6.22;;;19.70;99.90;;;;;;5072731;28;20060;-66
2022/09/07 10:35:14;;;;;;;7.82;6.82;;;19.80;99.90;;;;;;5073531;28;20094;-66
2022/09/07 10:38:17;;;;;;;8.90;7.13;;;19.90;99.90;;;;;;5072649;28;20079;-66
2022/09/07 10:40:44;;;;;;;7.97;6.50;;;19.90;99.90;;;;;;5073525;28;20066;-66
2022/09/07 10:43:15;;;;;;;7.47;6.03;;;20.00;99.90;;;;;;5073360;28;20056;-66
2022/09/07 10:45:41;;;;;;;6.97;6.03;;;20.10;99.90;;;;;;5073533;28;20074;-67
2022/09/07 10:48:18;;;;;;;6.43;5.72;;;20.30;99.90;;;;;;5072239;28;20048;-66
2022/09/07 10:50:52;;;;;;;8.23;6.13;;;20.30;99.90;;;;;;5073026;28;20052;-66
2022/09/07 10:53:32;;;;;;;6.93;5.90;;;20.30;99.90;;;;;;5072861;28;20442;-66
2022/09/07 10:56:13;;;;;;;7.05;5.85;;;20.20;99.90;;;;;;5073369;28;20083;-67
2022/09/07 10:58:58;;;;;;;8.18;6.57;;;20.30;99.90;;;;;;5069856;28;20087;-66
2022/09/07 11:01:35;;;;;;;8.63;7.18;;;20.40;99.90;;;;;;5070930;28;20056;-67
2022/09/07 11:04:32;;;;;;;8.90;7.60;;;20.60;99.90;;;;;;5072954;28;20044;-67
2022/09/07 11:07:14;;;;;;;9.00;6.80;;;20.70;99.90;;;;;;5073015;28;20074;-67
2022/09/07 11:09:54;;;;;;;7.90;7.10;;;20.70;99.90;;;;;;5072026;28;20528;-66
2022/09/07 11:12:34;;;;;;;9.00;7.35;;;20.60;99.90;;;;;;5072973;28;20048;-67
2022/09/07 11:15:11;;;;;;;8.93;7.05;;;20.70;99.90;;;;;;5072620;28;20587;-67
2022/09/07 11:17:49;;;;;;;9.10;6.90;;;20.90;99.90;;;;;;5072645;28;20382;-67
2022/09/07 11:20:15;;;;;;;8.63;7.53;;;21.00;99.90;;;;;;5072820;28;20043;-67
2022/09/07 11:23:14;;;;;;;7.18;6.47;;;21.10;99.90;;;;;;5071587;28;20536;-67
2022/09/07 11:25:50;;;;;;;6.50;4.97;;;21.20;99.90;;;;;;5072685;28;20400;-67
2022/09/07 11:28:22;;;;;;;6.28;5.38;;;21.40;99.90;;;;;;5072587;28;20048;-67
2022/09/07 11:30:58;;;;;;;5.78;5.10;;;21.40;99.90;;;;;;5072725;28;20080;-67
2022/09/07 11:33:50;;;;;;;7.38;5.75;;;21.40;99.90;;;;;;5072638;28;20080;-67
2022/09/07 11:36:18;;;;;;;6.18;5.53;;;21.40;99.90;;;;;;5054571;28;20052;-67
2022/09/07 11:38:59;;;;;;;6.15;5.22;;;21.40;99.90;;;;;;5072348;28;20086;-67
2022/09/07 11:41:36;;;;;;;6.82;5.38;;;21.50;99.90;;;;;;5072068;28;20498;-67
2022/09/07 11:44:12;;;;;;;5.95;5.35;;;21.60;99.90;;;;;;5072363;28;20048;-68
2022/09/07 11:46:46;;;;;;;5.88;5.30;;;21.70;99.90;;;;;;5072277;28;20058;-67
2022/09/07 11:49:14;;;;;;;5.75;5.15;;;21.80;99.90;;;;;;5070946;28;20408;-67
2022/09/07 11:52:06;;;;;;;5.47;4.78;;;21.70;99.90;;;;;;5072027;28;20048;-67
2022/09/07 11:54:40;;;;;;;6.50;5.25;;;21.70;99.90;;;;;;5066710;28;20540;-67
2022/09/07 11:57:38;;;;;;;5.57;4.88;;;21.70;99.90;;;;;;5072205;28;20048;-67
2022/09/07 12:00:11;;;;;;;5.07;4.18;;;21.90;99.90;;;;;;5070551;28;20519;-68
2022/09/07 12:02:58;;;;;;;5.50;5.00;;;21.90;99.90;;;;;;5071039;28;20064;-67
2022/09/07 12:05:24;;;;;;;4.93;4.40;;;21.80;99.90;;;;;;5070743;28;20047;-68
2022/09/07 12:08:10;;;;;;;6.45;4.88;;;21.70;99.90;;;;;;5071609;28;20044;-67
2022/09/07 12:10:39;;;;;;;5.88;5.28;;;21.80;99.90;;;;;;5050097;28;20056;-68
2022/09/07 12:13:29;;;;;;;5.68;5.07;;;21.80;99.90;;;;;;5071751;28;20059;-67
2022/09/07 12:16:15;;;;;;;5.32;4.82;;;21.80;99.90;;;;;;5071536;28;20051;-67
2022/09/07 12:19:10;;;;;;;6.22;4.78;;;21.80;99.90;;;;;;5051696;28;20056;-68
2022/09/07 12:21:53;;;;;;;5.57;4.55;;;21.90;99.90;;;;;;5054490;28;20131;-67
2022/09/07 12:24:33;;;;;;;5.60;5.07;;;22.10;99.90;;;;;;5069887;28;20060;-67
2022/09/07 12:27:00;;;;;;;5.00;4.50;;;22.20;99.90;;;;;;5071395;28;20087;-66
2022/09/07 12:29:28;;;;;;;5.10;4.43;;;22.10;99.90;;;;;;5071111;28;20500;-66
2022/09/07 12:31:59;;;;;;;7.35;4.70;;;22.00;99.90;;;;;;5071468;28;20048;-66
2022/09/07 12:34:30;;;;;;;4.75;4.25;;;22.00;99.90;;;;;;5071125;28;20048;-67
2022/09/07 12:37:25;;;;;;;4.60;3.95;;;22.00;99.90;;;;;;5071725;28;20091;-67
2022/09/07 12:40:26;;;;;;;4.93;4.00;;;22.00;99.90;;;;;;5051129;28;20560;-67
2022/09/07 12:43:11;;;;;;;4.95;3.55;;;21.90;99.90;;;;;;5051094;28;20049;-66
2022/09/07 12:45:37;;;;;;;4.22;3.38;;;22.00;99.90;;;;;;5066881;28;20100;-66
2022/09/07 12:48:14;;;;;;;4.35;3.45;;;22.20;99.90;;;;;;5051207;28;20088;-66
2022/09/07 12:50:57;;;;;;;5.25;3.10;;;22.30;99.90;;;;;;5051287;28;20044;-66
2022/09/07 12:53:27;;;;;;;3.85;2.60;;;22.40;99.90;;;;;;5049876;28;20045;-67
2022/09/07 12:56:14;;;;;;;3.60;2.72;;;22.50;99.90;;;;;;5061685;28;20075;-67
2022/09/07 12:58:58;;;;;;;3.88;2.50;;;22.60;99.90;;;;;;5071273;28;20053;-68
2022/09/07 13:02:02;;;;;;;3.25;2.30;;;22.70;99.90;;;;;;5070237;28;20068;-67
2022/09/07 13:04:45;;;;;;;2.88;2.08;;;22.70;99.90;;;;;;5069118;28;20087;-68
2022/09/07 13:07:44;;;;;;;3.05;2.28;;;22.80;99.90;;;;;;5071098;28;20047;-67
2022/09/07 13:10:35;;;;;;;2.83;2.00;;;22.90;99.90;;;;;;5071276;28;20123;-67